createdAt,value
2016-06-06T08:40:11.074Z,80
2016-06-06T08:40:30.167Z,80
2016-06-06T08:41:23.749Z,80
2016-06-06T08:42:29.736Z,80
2016-06-06T08:43:30.505Z,80
2016-06-06T08:44:27.897Z,85
2016-06-06T08:45:32.931Z,85
2016-06-06T08:46:23.527Z,85
2016-06-06T08:47:29.280Z,85
2016-06-06T08:48:29.674Z,85
2016-06-06T08:49:23.489Z,85
2016-06-06T08:50:23.069Z,85
2016-06-06T08:51:23.166Z,85
2016-06-06T08:52:23.607Z,85
2016-06-06T08:53:23.077Z,85
2016-06-06T08:54:23.034Z,85
2016-06-06T08:55:26.037Z,85
2016-06-06T08:56:22.929Z,85
2016-06-06T08:57:28.870Z,85
2016-06-06T08:58:23.372Z,85
2016-06-06T08:59:27.532Z,85
2016-06-06T09:00:23.081Z,85
2016-06-06T09:01:25.724Z,85
2016-06-06T09:02:22.712Z,85
2016-06-06T09:03:22.792Z,85
2016-06-06T09:04:22.623Z,85
2016-06-06T09:05:23.157Z,85
2016-06-06T09:06:22.550Z,85
2016-06-06T09:07:22.522Z,85
2016-06-06T09:08:22.461Z,85
2016-06-06T09:09:22.731Z,85
2016-06-06T09:10:25.342Z,85
2016-06-06T09:11:22.314Z,85
2016-06-06T09:12:22.176Z,85
2016-06-06T09:13:22.319Z,85
2016-06-06T09:14:22.869Z,85
2016-06-06T09:15:22.152Z,85
2016-06-06T09:16:22.280Z,85
2016-06-06T09:17:25.533Z,85
2016-06-06T09:18:21.974Z,85
2016-06-06T09:19:25.038Z,85
2016-06-06T09:20:22.557Z,85
2016-06-06T09:21:21.903Z,85
2016-06-06T09:22:22.046Z,85
2016-06-06T09:23:22.018Z,85
2016-06-06T09:24:21.786Z,85
2016-06-06T09:25:21.788Z,85
2016-06-06T09:26:22.135Z,85
2016-06-06T09:27:24.669Z,85
2016-06-06T09:28:24.454Z,85
2016-06-06T09:29:22.299Z,85
2016-06-06T09:30:21.818Z,90
2016-06-06T09:31:21.945Z,90
2016-06-06T09:32:22.011Z,90
2016-06-06T09:33:21.607Z,90
2016-06-06T09:34:21.360Z,85
2016-06-06T09:35:21.379Z,85
2016-06-06T09:36:21.256Z,85
2016-06-06T09:37:21.540Z,85
2016-06-06T09:38:21.042Z,85
2016-06-06T09:39:24.233Z,85
2016-06-06T09:40:21.095Z,90
2016-06-06T09:41:21.254Z,90
2016-06-06T09:42:21.100Z,90
2016-06-06T09:43:21.197Z,90
2016-06-06T09:44:21.574Z,90
2016-06-06T09:45:21.172Z,90
2016-06-06T09:46:25.158Z,90
2016-06-06T09:47:21.130Z,90
2016-06-06T09:48:21.147Z,90
2016-06-06T09:49:21.588Z,85
2016-06-06T09:50:21.090Z,90
2016-06-06T09:51:23.483Z,90
2016-06-06T09:52:20.768Z,90
2016-06-06T09:53:20.693Z,90
2016-06-06T09:54:20.742Z,90
2016-06-06T09:55:20.776Z,90
2016-06-06T09:56:20.622Z,90
2016-06-06T09:57:20.438Z,90
2016-06-06T09:58:20.377Z,90
2016-06-06T09:59:22.443Z,90
2016-06-06T10:00:20.337Z,90
2016-06-06T10:01:20.277Z,90
2016-06-06T10:02:20.170Z,90
2016-06-06T10:03:26.126Z,90
2016-06-06T10:04:20.081Z,90
2016-06-06T10:05:20.162Z,90
2016-06-06T10:06:19.868Z,90
2016-06-06T10:07:20.184Z,90
2016-06-06T10:08:20.139Z,90
2016-06-06T10:09:20.236Z,90
2016-06-06T10:10:19.831Z,90
2016-06-06T10:11:20.054Z,90
2016-06-06T10:12:20.150Z,90
2016-06-06T10:13:20.214Z,90
2016-06-06T10:14:20.953Z,90
2016-06-06T10:15:20.033Z,90
2016-06-06T10:16:19.473Z,90
2016-06-06T10:17:19.741Z,90
2016-06-06T10:18:19.510Z,90
2016-06-06T10:19:19.528Z,90
2016-06-06T10:20:28.844Z,90
2016-06-06T10:21:19.377Z,90
2016-06-06T10:22:22.661Z,90
2016-06-06T10:23:22.774Z,90
2016-06-06T10:24:19.135Z,90
2016-06-06T10:25:19.247Z,90
2016-06-06T10:26:19.000Z,90
2016-06-06T10:27:19.174Z,90
2016-06-06T10:28:22.098Z,90
2016-06-06T10:29:19.618Z,90
2016-06-06T10:30:22.807Z,90
2016-06-06T10:31:19.185Z,90
2016-06-06T10:32:18.906Z,90
2016-06-06T10:33:19.331Z,90
2016-06-06T10:34:19.240Z,95
2016-06-06T10:35:19.196Z,95
2016-06-06T10:36:19.636Z,95
2016-06-06T10:37:19.061Z,95
2016-06-06T10:38:22.609Z,95
2016-06-06T10:39:18.613Z,95
2016-06-06T10:40:18.615Z,90
2016-06-06T10:41:18.540Z,90
2016-06-06T10:42:21.589Z,90
2016-06-06T10:43:18.311Z,95
2016-06-06T10:44:21.501Z,95
2016-06-06T10:45:18.645Z,95
2016-06-06T10:46:18.366Z,95
2016-06-06T10:47:18.322Z,95
2016-06-06T10:48:30.434Z,95
2016-06-06T10:49:27.280Z,95
2016-06-06T10:50:18.408Z,95
2016-06-06T10:51:18.145Z,95
2016-06-06T10:52:18.102Z,95
2016-06-06T10:53:18.307Z,100
2016-06-06T10:54:24.419Z,100
2016-06-06T10:55:17.828Z,100
2016-06-06T10:56:18.112Z,100
2016-06-06T10:57:17.911Z,100
2016-06-06T10:58:17.679Z,100
2016-06-06T10:59:24.995Z,100
2016-06-06T11:00:21.419Z,100
2016-06-06T11:01:17.907Z,100
2016-06-06T11:02:17.924Z,100
2016-06-06T11:03:20.693Z,105
2016-06-06T11:04:17.618Z,105
2016-06-06T11:05:17.480Z,105
2016-06-06T11:06:17.530Z,105
2016-06-06T11:07:23.720Z,105
2016-06-06T11:08:17.831Z,105
2016-06-06T11:09:20.693Z,105
2016-06-06T11:10:20.540Z,110
2016-06-06T11:11:17.699Z,110
2016-06-06T11:12:18.358Z,110
2016-06-06T11:13:20.314Z,110
2016-06-06T11:14:25.223Z,105
2016-06-06T11:15:20.850Z,105
2016-06-06T11:16:17.072Z,105
2016-06-06T11:17:17.074Z,105
2016-06-06T11:18:20.031Z,110
2016-06-06T11:19:16.908Z,115
2016-06-06T11:20:16.927Z,115
2016-06-06T11:21:19.976Z,130
2016-06-06T11:22:16.869Z,125
2016-06-06T11:23:16.810Z,115
2016-06-06T11:24:16.766Z,120
2016-06-06T11:25:16.580Z,130
2016-06-06T11:26:19.724Z,135
2016-06-06T11:27:16.664Z,125
2016-06-06T11:28:16.526Z,110
2016-06-06T11:29:18.060Z,115
2016-06-06T11:30:21.344Z,125
2016-06-06T11:31:16.877Z,125
2016-06-06T11:32:19.552Z,125
2016-06-06T11:33:16.665Z,125
2016-06-06T11:34:16.573Z,125
2016-06-06T11:35:19.560Z,125
2016-06-06T11:36:16.282Z,125
2016-06-06T11:37:16.254Z,120
2016-06-06T11:38:16.615Z,125
2016-06-06T11:39:16.478Z,130
2016-06-06T11:40:16.651Z,135
2016-06-06T11:41:19.279Z,140
2016-06-06T11:42:19.157Z,155
2016-06-06T11:43:19.223Z,180
2016-06-06T11:44:16.897Z,170
2016-06-06T11:45:15.790Z,145
2016-06-06T11:46:15.731Z,130
2016-06-06T11:47:16.217Z,135
2016-06-06T11:48:18.814Z,140
2016-06-06T11:49:15.895Z,145
2016-06-06T11:50:18.898Z,155
2016-06-06T11:51:15.681Z,150
2016-06-06T11:52:15.622Z,135
2016-06-06T11:53:15.656Z,120
2016-06-06T11:54:15.846Z,110
2016-06-06T11:55:16.317Z,125
2016-06-06T11:56:15.477Z,130
2016-06-06T11:57:18.432Z,140
2016-06-06T11:58:16.044Z,145
2016-06-06T11:59:16.234Z,155
2016-06-06T12:00:15.644Z,160
2016-06-06T12:01:15.333Z,170
2016-06-06T12:02:15.429Z,160
2016-06-06T12:03:15.371Z,160
2016-06-06T12:04:15.014Z,160
2016-06-06T12:05:15.110Z,160
2016-06-06T12:06:15.050Z,165
2016-06-06T12:07:15.132Z,145
2016-06-06T12:08:15.227Z,140
2016-06-06T12:09:15.511Z,125
2016-06-06T12:10:14.968Z,130
2016-06-06T12:11:14.735Z,135
2016-06-06T12:12:18.020Z,135
2016-06-06T12:13:18.070Z,135
2016-06-06T12:14:15.150Z,155
2016-06-06T12:15:14.731Z,160
2016-06-06T12:16:14.999Z,160
2016-06-06T12:17:14.986Z,160
2016-06-06T12:18:14.598Z,165
2016-06-06T12:19:14.554Z,170
2016-06-06T12:20:15.556Z,175
2016-06-06T12:21:14.497Z,185
2016-06-06T12:22:14.531Z,180
2016-06-06T12:23:14.236Z,200
2016-06-06T12:24:14.536Z,215
2016-06-06T12:25:14.585Z,215
2016-06-06T12:26:14.479Z,210
2016-06-06T12:27:17.497Z,230
2016-06-06T12:28:14.187Z,250
2016-06-06T12:29:14.018Z,250
2016-06-06T12:30:14.740Z,250
2016-06-06T12:31:14.102Z,230
2016-06-06T12:32:17.058Z,190
2016-06-06T12:33:13.902Z,175
2016-06-06T12:34:14.250Z,175
2016-06-06T12:35:16.925Z,185
2016-06-06T12:36:16.927Z,185
2016-06-06T12:37:13.927Z,185
2016-06-06T12:38:13.805Z,200
2016-06-06T12:39:13.886Z,205
2016-06-06T12:40:13.920Z,205
2016-06-06T12:41:13.657Z,200
2016-06-06T12:42:14.160Z,200
2016-06-06T12:43:16.760Z,215
2016-06-06T12:44:20.668Z,225
2016-06-06T12:45:13.731Z,210
2016-06-06T12:46:13.530Z,220
2016-06-06T12:47:14.408Z,205
2016-06-06T12:48:13.411Z,190
2016-06-06T12:49:13.867Z,180
2016-06-06T12:50:16.356Z,195
2016-06-06T12:51:13.544Z,185
2016-06-06T12:52:13.250Z,185
2016-06-06T12:53:13.267Z,190
2016-06-06T12:54:13.567Z,190
2016-06-06T12:55:16.229Z,195
2016-06-06T12:56:13.089Z,200
2016-06-06T12:57:13.919Z,205
2016-06-06T12:58:12.999Z,205
2016-06-06T12:59:16.739Z,195
2016-06-06T13:00:13.896Z,195
2016-06-06T13:01:13.492Z,185
2016-06-06T13:02:13.105Z,190
2016-06-06T13:03:12.857Z,180
2016-06-06T13:04:13.250Z,175
2016-06-06T13:05:12.721Z,170
2016-06-06T13:06:19.805Z,175
2016-06-06T13:07:15.651Z,175
2016-06-06T13:08:13.042Z,180
2016-06-06T13:09:13.030Z,170
2016-06-06T13:10:12.610Z,160
2016-06-06T13:11:15.410Z,145
2016-06-06T13:12:12.646Z,135
2016-06-06T13:13:18.637Z,135
2016-06-06T13:14:14.277Z,135
2016-06-06T13:15:13.374Z,135
2016-06-06T13:16:15.751Z,140
2016-06-06T13:17:12.457Z,140
2016-06-06T13:18:12.647Z,145
2016-06-06T13:19:12.165Z,145
2016-06-06T13:20:21.359Z,150
2016-06-06T13:21:12.265Z,150
2016-06-06T13:22:21.395Z,150
2016-06-06T13:23:12.645Z,150
2016-06-06T13:24:12.008Z,150
2016-06-06T13:25:11.838Z,145
2016-06-06T13:26:11.888Z,140
2016-06-06T13:27:12.453Z,135
2016-06-06T13:28:13.846Z,130
2016-06-06T13:29:15.786Z,125
2016-06-06T13:30:14.649Z,120
2016-06-06T13:31:11.901Z,120
2016-06-06T13:32:14.700Z,115
2016-06-06T13:33:11.688Z,115
2016-06-06T13:34:11.612Z,110
2016-06-06T13:35:11.787Z,110
2016-06-06T13:36:14.665Z,115
2016-06-06T13:37:11.793Z,115
2016-06-06T13:38:11.795Z,110
2016-06-06T13:39:11.923Z,110
2016-06-06T13:40:13.488Z,105
2016-06-06T13:41:11.756Z,105
2016-06-06T13:42:14.477Z,105
2016-06-06T13:43:14.745Z,100
2016-06-06T13:44:14.687Z,100
2016-06-06T13:45:11.518Z,100
2016-06-06T13:46:11.395Z,105
2016-06-06T13:47:11.444Z,100
2016-06-06T13:48:11.041Z,100
2016-06-06T13:49:14.043Z,100
2016-06-06T13:50:10.983Z,95
2016-06-06T13:51:11.345Z,90
2016-06-06T13:52:10.754Z,95
2016-06-06T13:53:11.336Z,85
2016-06-06T13:54:10.759Z,85
2016-06-06T13:55:10.794Z,85
2016-06-06T13:56:16.734Z,85
2016-06-06T13:57:10.705Z,85
2016-06-06T13:58:10.739Z,85
2016-06-06T13:59:10.991Z,85
2016-06-06T14:00:10.650Z,85
2016-06-06T14:01:10.528Z,85
2016-06-06T14:02:11.000Z,85
2016-06-06T14:03:10.472Z,80
2016-06-06T14:04:10.443Z,80
2016-06-06T14:05:10.555Z,85
2016-06-06T14:06:10.667Z,85
2016-06-06T14:07:10.483Z,85
2016-06-06T14:08:10.016Z,85
2016-06-06T14:09:10.175Z,85
2016-06-06T14:10:13.115Z,90
2016-06-06T14:11:13.180Z,100
2016-06-06T14:12:10.340Z,110
2016-06-06T14:13:10.030Z,110
2016-06-06T14:14:10.235Z,110
2016-06-06T14:15:10.504Z,110
2016-06-06T14:16:10.069Z,110
2016-06-06T14:17:12.885Z,110
2016-06-06T14:18:12.809Z,110
2016-06-06T14:19:10.030Z,115
2016-06-06T14:20:12.736Z,110
2016-06-06T14:21:09.848Z,110
2016-06-06T14:22:15.491Z,110
2016-06-06T14:23:10.087Z,110
2016-06-06T14:24:09.606Z,110
2016-06-06T14:25:09.828Z,105
2016-06-06T14:26:09.346Z,110
2016-06-06T14:27:09.864Z,110
2016-06-06T14:28:09.382Z,110
2016-06-06T14:29:09.573Z,110
2016-06-06T14:30:10.013Z,110
2016-06-06T14:31:09.718Z,105
2016-06-06T14:32:12.597Z,105
2016-06-06T14:33:09.005Z,105
2016-06-06T14:34:09.133Z,100
2016-06-06T14:35:09.338Z,100
2016-06-06T14:36:09.701Z,105
2016-06-06T14:37:12.547Z,105
2016-06-06T14:38:09.550Z,110
2016-06-06T14:39:09.162Z,115
2016-06-06T14:40:12.259Z,120
2016-06-06T14:41:12.074Z,130
2016-06-06T14:42:08.920Z,140
2016-06-06T14:43:08.782Z,155
2016-06-06T14:44:09.207Z,170
2016-06-06T14:45:09.460Z,185
2016-06-06T14:46:11.868Z,200
2016-06-06T14:47:08.668Z,220
2016-06-06T14:48:08.889Z,240
2016-06-06T14:49:11.565Z,260
2016-06-06T14:50:09.035Z,275
2016-06-06T14:51:11.631Z,290
2016-06-06T14:52:11.759Z,305
2016-06-06T14:53:11.450Z,310
2016-06-06T14:54:19.186Z,315
2016-06-06T14:55:08.814Z,310
2016-06-06T14:56:11.348Z,310
2016-06-06T14:57:11.226Z,315
2016-06-06T14:58:08.806Z,310
2016-06-06T14:59:08.310Z,305
2016-06-06T15:00:09.078Z,300
2016-06-06T15:01:11.300Z,290
2016-06-06T15:02:08.224Z,285
2016-06-06T15:03:08.211Z,275
2016-06-06T15:04:07.948Z,270
2016-06-06T15:05:11.544Z,265
2016-06-06T15:06:08.047Z,275
2016-06-06T15:07:08.019Z,280
2016-06-06T15:08:07.787Z,275
2016-06-06T15:09:07.837Z,275
2016-06-06T15:10:07.558Z,285
2016-06-06T15:11:10.716Z,290
2016-06-06T15:12:07.829Z,300
2016-06-06T15:13:10.676Z,620
2016-06-06T15:14:07.787Z,1255
2016-06-06T15:15:07.181Z,1650
2016-06-06T15:16:10.527Z,1660
2016-06-06T15:17:10.639Z,1670
2016-06-06T15:18:10.220Z,1545
2016-06-06T15:19:07.332Z,1570
2016-06-06T15:20:10.320Z,1620
2016-06-06T15:21:07.260Z,1690
2016-06-06T15:22:10.278Z,1725
2016-06-06T15:23:07.203Z,1600
2016-06-06T15:24:10.315Z,1525
2016-06-06T15:25:07.177Z,1545
2016-06-06T15:26:10.117Z,1580
2016-06-06T15:27:11.041Z,1625
2016-06-06T15:28:07.044Z,1615
2016-06-06T15:29:10.203Z,1540
2016-06-06T15:30:10.690Z,1485
2016-06-06T15:31:10.068Z,1470
2016-06-06T15:32:07.102Z,1490
2016-06-06T15:33:06.855Z,1515
2016-06-06T15:34:06.638Z,1450
2016-06-06T15:35:06.767Z,1390
2016-06-06T15:36:09.925Z,1360
2016-06-06T15:37:07.491Z,1280
2016-06-06T15:38:06.711Z,1040
2016-06-06T15:39:09.667Z,1335
2016-06-06T15:40:06.686Z,1275
2016-06-06T15:41:06.594Z,1180
2016-06-06T15:42:06.582Z,1070
2016-06-06T15:43:06.740Z,905
2016-06-06T15:44:09.571Z,710
2016-06-06T15:45:10.480Z,640
2016-06-06T15:46:06.343Z,580
2016-06-06T15:47:06.518Z,395
2016-06-06T15:48:06.301Z,345
2016-06-06T15:49:06.241Z,345
2016-06-06T15:50:06.229Z,350
2016-06-06T15:51:06.169Z,325
2016-06-06T15:52:07.327Z,340
2016-06-06T15:53:12.268Z,305
2016-06-06T15:54:09.098Z,320
2016-06-06T15:55:06.085Z,320
2016-06-06T15:56:06.901Z,310
2016-06-06T15:57:06.028Z,275
2016-06-06T15:58:12.203Z,210
2016-06-06T15:59:05.753Z,170
2016-06-06T16:00:12.568Z,155
2016-06-06T16:01:05.867Z,150
2016-06-06T16:02:08.808Z,145
2016-06-06T16:03:08.592Z,140
2016-06-06T16:04:05.578Z,135
2016-06-06T16:05:05.862Z,135
2016-06-06T16:06:06.412Z,130
2016-06-06T16:07:05.602Z,130
2016-06-06T16:08:14.402Z,130
2016-06-06T16:09:05.717Z,125
2016-06-06T16:10:09.017Z,130
2016-06-06T16:11:05.753Z,120
2016-06-06T16:12:10.256Z,120
2016-06-06T16:13:05.197Z,115
2016-06-06T16:14:11.341Z,110
2016-06-06T16:15:05.343Z,110
2016-06-06T16:16:08.236Z,105
2016-06-06T16:17:05.207Z,105
2016-06-06T16:18:08.179Z,105
2016-06-06T16:19:08.354Z,100
2016-06-06T16:20:11.122Z,100
2016-06-06T16:21:05.093Z,100
2016-06-06T16:22:05.283Z,95
2016-06-06T16:23:05.255Z,95
2016-06-06T16:24:04.976Z,90
2016-06-06T16:25:07.916Z,90
2016-06-06T16:26:04.919Z,90
2016-06-06T16:27:05.046Z,85
2016-06-06T16:28:04.799Z,85
2016-06-06T16:29:05.302Z,85
2016-06-06T16:30:06.226Z,80
2016-06-06T16:31:05.417Z,80
2016-06-06T16:32:04.717Z,85
2016-06-06T16:33:14.187Z,85
2016-06-06T16:34:04.675Z,85
2016-06-06T16:35:04.506Z,85
2016-06-06T16:36:04.556Z,90
2016-06-06T16:37:04.448Z,90
2016-06-06T16:38:04.420Z,85
2016-06-06T16:39:04.783Z,90
2016-06-06T16:40:07.550Z,90
2016-06-06T16:41:10.194Z,90
2016-06-06T16:42:04.244Z,90
2016-06-06T16:43:16.219Z,95
2016-06-06T16:44:07.165Z,100
2016-06-06T16:45:10.578Z,100
2016-06-06T16:46:07.117Z,105
2016-06-06T16:47:04.079Z,110
2016-06-06T16:48:04.005Z,110
2016-06-06T16:49:04.181Z,110
2016-06-06T16:50:07.122Z,115
2016-06-06T16:51:03.908Z,120
2016-06-06T16:52:03.912Z,120
2016-06-06T16:53:03.682Z,130
2016-06-06T16:54:06.794Z,130
2016-06-06T16:55:04.001Z,135
2016-06-06T16:56:03.895Z,140
2016-06-06T16:57:03.774Z,140
2016-06-06T16:58:03.621Z,145
2016-06-06T16:59:03.654Z,145
2016-06-06T17:00:04.095Z,140
2016-06-06T17:01:04.208Z,135
2016-06-06T17:02:06.664Z,135
2016-06-06T17:03:03.448Z,130
2016-06-06T17:04:03.309Z,130
2016-06-06T17:05:03.359Z,120
2016-06-06T17:06:03.580Z,120
2016-06-06T17:07:03.272Z,120
2016-06-06T17:08:03.820Z,120
2016-06-06T17:09:06.198Z,120
2016-06-06T17:10:03.155Z,120
2016-06-06T17:11:06.344Z,120
2016-06-06T17:12:03.066Z,120
2016-06-06T17:13:03.131Z,120
2016-06-06T17:14:02.977Z,120
2016-06-06T17:15:03.277Z,120
2016-06-06T17:16:02.796Z,115
2016-06-06T17:17:02.923Z,115
2016-06-06T17:18:03.035Z,115
2016-06-06T17:19:02.804Z,115
2016-06-06T17:20:02.962Z,115
2016-06-06T17:21:02.918Z,110
2016-06-06T17:22:02.483Z,110
2016-06-06T17:23:02.643Z,110
2016-06-06T17:24:03.160Z,110
2016-06-06T17:25:02.570Z,105
2016-06-06T17:26:02.525Z,105
2016-06-06T17:27:02.309Z,100
2016-06-06T17:28:02.421Z,100
2016-06-06T17:29:02.580Z,95
2016-06-06T17:30:03.209Z,95
2016-06-06T17:31:02.289Z,90
2016-06-06T17:32:02.244Z,90
2016-06-06T17:33:02.232Z,85
2016-06-06T17:34:02.172Z,85
2016-06-06T17:35:02.455Z,80
2016-06-06T17:36:02.099Z,80
2016-06-06T17:37:02.148Z,75
2016-06-06T17:38:02.197Z,75
2016-06-06T17:39:05.389Z,75
2016-06-06T17:40:01.953Z,70
2016-06-06T17:41:01.752Z,70
2016-06-06T17:42:01.866Z,65
2016-06-06T17:43:02.024Z,65
2016-06-06T17:44:01.777Z,65
2016-06-06T17:45:02.091Z,65
2016-06-06T17:46:01.580Z,65
2016-06-06T17:47:01.722Z,65
2016-06-06T17:48:01.646Z,60
2016-06-06T17:49:01.400Z,60
2016-06-06T17:50:04.527Z,60
2016-06-06T17:51:01.498Z,60
2016-06-06T17:52:01.438Z,55
2016-06-06T17:53:01.395Z,55
2016-06-06T17:54:01.398Z,55
2016-06-06T17:55:01.321Z,55
2016-06-06T17:56:01.293Z,55
2016-06-06T17:57:01.484Z,50
2016-06-06T17:58:04.439Z,50
2016-06-06T17:59:07.207Z,50
2016-06-06T18:00:05.070Z,50
2016-06-06T18:01:04.370Z,50
2016-06-06T18:02:04.137Z,50
2016-06-06T18:03:00.984Z,45
2016-06-06T18:04:00.831Z,45
2016-06-06T18:05:00.927Z,45
2016-06-06T18:06:04.101Z,45
2016-06-06T18:07:04.058Z,45
2016-06-06T18:08:00.888Z,45
2016-06-06T18:09:00.766Z,45
2016-06-06T18:10:06.878Z,45
2016-06-06T18:11:06.708Z,45
2016-06-06T18:12:00.664Z,45
2016-06-06T18:13:00.605Z,45
2016-06-06T18:14:00.639Z,45
2016-06-06T18:15:01.813Z,45
2016-06-06T18:16:00.332Z,45
2016-06-06T18:17:00.413Z,45
2016-06-06T18:18:00.368Z,45
2016-06-06T18:19:00.168Z,45
2016-06-06T18:20:00.296Z,45
2016-06-06T18:21:03.486Z,45
2016-06-06T18:22:00.066Z,45
2016-06-06T18:23:00.085Z,45
2016-06-06T18:24:00.149Z,45
2016-06-06T18:25:00.153Z,45
2016-06-06T18:26:06.108Z,45
2016-06-06T18:27:03.032Z,40
2016-06-06T18:28:02.879Z,40
2016-06-06T18:29:08.945Z,40
2016-06-06T18:30:03.212Z,40
2016-06-06T18:30:59.888Z,40
2016-06-06T18:32:03.000Z,40
2016-06-06T18:32:59.798Z,40
2016-06-06T18:33:59.755Z,40
2016-06-06T18:34:59.914Z,40
2016-06-06T18:35:59.667Z,35
2016-06-06T18:36:59.591Z,35
2016-06-06T18:38:00.094Z,35
2016-06-06T18:39:02.550Z,35
2016-06-06T18:40:05.708Z,35
2016-06-06T18:41:02.445Z,35
2016-06-06T18:42:05.402Z,35
2016-06-06T18:43:02.857Z,30
2016-06-06T18:44:02.314Z,30
2016-06-06T18:45:03.972Z,30
2016-06-06T18:46:00.178Z,30
2016-06-06T18:46:59.258Z,30
2016-06-06T18:48:02.199Z,30
2016-06-06T18:48:59.108Z,30
2016-06-06T18:49:59.110Z,25
2016-06-06T18:50:59.238Z,25
2016-06-06T18:51:59.007Z,25
2016-06-06T18:52:58.994Z,25
2016-06-06T18:53:58.934Z,25
2016-06-06T18:54:58.873Z,25
2016-06-06T18:55:59.143Z,25
2016-06-06T18:56:58.785Z,25
2016-06-06T18:57:58.835Z,25
2016-06-06T18:58:58.573Z,20
2016-06-06T19:00:00.200Z,20
2016-06-06T19:00:59.233Z,20
2016-06-06T19:02:01.642Z,20
2016-06-06T19:02:58.598Z,20
2016-06-06T19:03:58.742Z,20
2016-06-06T19:04:58.494Z,20
2016-06-06T19:05:58.466Z,20
2016-06-06T19:07:01.625Z,15
2016-06-06T19:07:58.378Z,15
2016-06-06T19:09:07.005Z,15
2016-06-06T19:09:58.477Z,15
2016-06-06T19:10:58.526Z,15
2016-06-06T19:11:58.826Z,15
2016-06-06T19:13:01.453Z,15
2016-06-06T19:14:04.175Z,15
2016-06-06T19:14:58.677Z,15
2016-06-06T19:16:01.072Z,10
2016-06-06T19:16:58.980Z,10
2016-06-06T19:18:01.295Z,10
2016-06-06T19:18:58.407Z,10
2016-06-06T19:19:58.066Z,10
2016-06-06T19:21:03.803Z,10
2016-06-06T19:22:03.635Z,10
2016-06-06T19:23:03.808Z,10
2016-06-06T19:23:57.546Z,10
2016-06-06T19:25:06.735Z,10
2016-06-06T19:26:00.613Z,5
2016-06-06T19:27:03.585Z,5
2016-06-06T19:28:00.775Z,5
2016-06-06T19:29:03.934Z,5
2016-06-06T19:29:57.452Z,5
2016-06-06T19:31:03.409Z,5
2016-06-06T19:32:00.223Z,5
2016-06-06T19:32:57.304Z,5
2016-06-06T19:34:00.292Z,5
2016-06-06T19:34:57.262Z,5
2016-06-06T19:36:00.437Z,0
2016-06-06T19:36:57.534Z,0
2016-06-06T19:38:03.115Z,0
2016-06-06T19:39:00.133Z,0
2016-06-06T19:39:57.136Z,0
2016-06-06T19:40:57.201Z,0
2016-06-06T19:41:56.984Z,0
2016-06-06T19:42:57.284Z,0
2016-06-06T19:43:56.959Z,0
2016-06-06T19:44:59.774Z,0
2016-06-06T19:45:56.964Z,0
2016-06-06T19:46:56.577Z,0
2016-06-06T19:47:56.657Z,0
2016-06-06T19:48:59.503Z,0
2016-06-06T19:49:57.115Z,0
2016-06-06T19:50:56.555Z,0
2016-06-06T19:51:56.558Z,0
2016-06-06T19:52:56.468Z,0
2016-06-06T19:53:59.251Z,0
2016-06-06T19:54:59.410Z,0
2016-06-06T19:55:56.960Z,0
2016-06-06T19:56:56.713Z,0
2016-06-06T19:58:05.621Z,0
2016-06-06T19:58:56.640Z,0
2016-06-06T19:59:59.564Z,0
2016-06-06T20:00:56.254Z,0
2016-06-06T20:01:59.523Z,0
2016-06-06T20:03:02.462Z,0
2016-06-06T20:03:59.262Z,0
2016-06-06T20:04:59.110Z,0
2016-06-06T20:05:56.877Z,0
2016-06-06T20:07:04.881Z,0
2016-06-06T20:07:56.304Z,0
2016-06-06T20:08:59.057Z,0
2016-06-06T20:09:58.981Z,0
2016-06-06T20:11:02.109Z,0
2016-06-06T20:11:56.019Z,0
2016-06-06T20:12:55.755Z,0
2016-06-06T20:13:55.727Z,0
2016-06-06T20:14:58.652Z,0
2016-06-06T20:15:55.747Z,0
2016-06-06T20:16:55.891Z,0
2016-06-06T20:17:58.503Z,0
2016-06-06T20:18:55.756Z,0
2016-06-06T20:20:05.196Z,0
2016-06-06T20:20:55.653Z,0
2016-06-06T20:21:55.921Z,0
2016-06-06T20:22:58.548Z,0
2016-06-06T20:23:55.363Z,0
2016-06-06T20:24:55.163Z,0
2016-06-06T20:25:55.477Z,0
2016-06-06T20:26:55.340Z,0
2016-06-06T20:27:58.233Z,0
2016-06-06T20:28:55.299Z,0
2016-06-06T20:29:58.363Z,0
2016-06-06T20:30:55.085Z,0
2016-06-06T20:31:54.948Z,0
2016-06-06T20:32:57.857Z,0
2016-06-06T20:33:55.032Z,0
2016-06-06T20:35:01.627Z,0
2016-06-06T20:36:01.145Z,0
2016-06-06T20:36:59.132Z,0
2016-06-06T20:37:55.010Z,0
2016-06-06T20:38:57.887Z,0
2016-06-06T20:39:54.828Z,0
2016-06-06T20:41:00.878Z,0
2016-06-06T20:41:57.678Z,0
2016-06-06T20:42:57.727Z,0
2016-06-06T20:43:54.558Z,0
2016-06-06T20:44:57.685Z,0
2016-06-06T20:45:57.344Z,0
2016-06-06T20:47:03.316Z,0
2016-06-06T20:48:00.350Z,0
2016-06-06T20:48:57.571Z,0
2016-06-06T20:49:54.730Z,0
2016-06-06T20:51:00.716Z,0
2016-06-06T20:51:58.876Z,0
2016-06-06T20:52:54.160Z,0
2016-06-06T20:53:54.163Z,0
2016-06-06T20:54:57.446Z,0
2016-06-06T20:56:12.027Z,0
2016-06-06T20:58:08.830Z,0
2016-06-06T20:59:02.707Z,0
2016-06-06T20:59:53.835Z,0
2016-06-06T21:00:53.807Z,0
2016-06-06T21:01:56.575Z,0
2016-06-06T21:02:56.547Z,0
2016-06-06T21:03:53.704Z,0
2016-06-06T21:04:53.145Z,0
2016-06-06T21:05:59.868Z,0
2016-06-06T21:06:56.417Z,0
2016-06-06T21:07:56.762Z,0
2016-06-06T21:08:53.515Z,0
2016-06-06T21:09:56.393Z,0
2016-06-06T21:10:53.334Z,0
2016-06-06T21:11:53.336Z,0
2016-06-06T21:12:56.104Z,0
2016-06-06T21:13:53.061Z,0
2016-06-06T21:14:53.032Z,0
2016-06-06T21:15:56.253Z,0
2016-06-06T21:16:52.944Z,0
2016-06-06T21:17:52.899Z,0
2016-06-06T21:18:58.871Z,0
2016-06-06T21:20:00.763Z,0
2016-06-06T21:20:53.563Z,0
2016-06-06T21:21:58.722Z,0
2016-06-06T21:22:52.710Z,0
2016-06-06T21:23:52.618Z,0
2016-06-06T21:24:55.605Z,0
2016-06-06T21:25:52.546Z,0
2016-06-06T21:26:52.564Z,0
2016-06-06T21:27:52.473Z,0
2016-06-06T21:28:52.413Z,0
2016-06-06T21:29:52.619Z,0
2016-06-06T21:30:52.402Z,0
2016-06-06T21:31:52.280Z,0
2016-06-06T21:32:55.517Z,0
2016-06-06T21:34:01.535Z,0
2016-06-06T21:34:58.273Z,0
2016-06-06T21:35:55.151Z,0
2016-06-06T21:36:58.106Z,0
2016-06-06T21:37:55.078Z,0
2016-06-06T21:38:51.862Z,0
2016-06-06T21:39:53.177Z,0
2016-06-06T21:40:52.445Z,0
2016-06-06T21:41:54.886Z,0
2016-06-06T21:42:51.809Z,0
2016-06-06T21:43:51.984Z,0
2016-06-06T21:44:51.956Z,0
2016-06-06T21:45:54.755Z,0
2016-06-06T21:46:58.039Z,0
2016-06-06T21:47:54.636Z,0
2016-06-06T21:48:57.467Z,0
2016-06-06T21:49:55.391Z,0
2016-06-06T21:50:54.691Z,0
2016-06-06T21:51:51.850Z,0
2016-06-06T21:52:54.416Z,0
2016-06-06T21:53:51.371Z,0
2016-06-06T21:54:51.217Z,0
2016-06-06T21:55:54.282Z,0
2016-06-06T21:56:54.222Z,0
2016-06-06T21:57:57.225Z,0
2016-06-06T21:58:54.541Z,0
2016-06-06T21:59:51.418Z,0
2016-06-06T22:00:54.108Z,0
2016-06-06T22:01:57.111Z,0
2016-06-06T22:02:57.099Z,0
2016-06-06T22:03:53.976Z,0
2016-06-06T22:04:53.760Z,0
2016-06-06T22:05:53.700Z,0
2016-06-06T22:06:50.843Z,0
2016-06-06T22:07:53.737Z,0
2016-06-06T22:08:53.724Z,0
2016-06-06T22:09:53.898Z,0
2016-06-06T22:10:50.745Z,0
2016-06-06T22:11:50.623Z,0
2016-06-06T22:12:50.766Z,0
2016-06-06T22:13:50.503Z,0
2016-06-06T22:14:53.475Z,0
2016-06-06T22:15:53.665Z,0
2016-06-06T22:16:53.230Z,0
2016-06-06T22:17:56.513Z,0
2016-06-06T22:18:50.298Z,0
2016-06-06T22:19:56.284Z,0
2016-06-06T22:20:56.350Z,0
2016-06-06T22:21:50.180Z,0
2016-06-06T22:22:59.136Z,0
2016-06-06T22:23:53.077Z,0
2016-06-06T22:24:53.064Z,0
2016-06-06T22:25:53.238Z,0
2016-06-06T22:26:49.975Z,0
2016-06-06T22:27:49.930Z,0
2016-06-06T22:28:50.074Z,0
2016-06-06T22:29:49.811Z,0
2016-06-06T22:30:52.830Z,0
2016-06-06T22:31:49.427Z,0
2016-06-06T22:32:49.538Z,0
2016-06-06T22:33:49.776Z,0
2016-06-06T22:34:49.841Z,0
2016-06-06T22:35:52.609Z,0
2016-06-06T22:36:49.955Z,0
2016-06-06T22:37:49.490Z,0
2016-06-06T22:38:49.445Z,0
2016-06-06T22:39:49.245Z,0
2016-06-06T22:40:49.560Z,0
2016-06-06T22:41:49.297Z,0
2016-06-06T22:42:49.362Z,0
2016-06-06T22:43:52.255Z,0
2016-06-06T22:44:49.195Z,0
2016-06-06T22:45:49.151Z,0
2016-06-06T22:46:52.326Z,0
2016-06-06T22:47:49.064Z,0
2016-06-06T22:48:58.097Z,0